Time;durP1;ratioP1;P1;durP2;ratioP2;P2;SDS_P1;SDS_P2;PMS_P1;PMS_P2;Temp;Humidity;BMP_temperature;BMP_pressure;BME280_temperature;BME280_humidity;BME280_pressure;Samples;Min_cycle;Max_cycle;Signal;HPM_P1;HPM_P2
2023/08/31 00:01:49;;;;;;;2.55;0.47;;;12.40;99.90;;;;;;5004087;28;20042;-73
2023/08/31 00:04:15;;;;;;;2.58;0.80;;;12.40;99.90;;;;;;5001849;28;20046;-73
2023/08/31 00:06:41;;;;;;;0.30;0.30;;;12.40;99.90;;;;;;5003920;28;20408;-74
2023/08/31 00:09:09;;;;;;;1.25;0.52;;;12.40;99.90;;;;;;5004395;28;20100;-72
2023/08/31 00:11:35;;;;;;;0.52;0.40;;;12.30;99.90;;;;;;5003016;28;20046;-73
2023/08/31 00:14:01;;;;;;;1.77;0.50;;;12.30;99.90;;;;;;5003056;28;20056;-72
2023/08/31 00:16:27;;;;;;;0.40;0.40;;;12.30;99.90;;;;;;5001905;28;20056;-73
2023/08/31 00:18:54;;;;;;;0.85;0.40;;;12.20;99.90;;;;;;5002671;28;20045;-73
2023/08/31 00:21:20;;;;;;;0.45;0.30;;;12.20;99.90;;;;;;5003374;28;20049;-73
2023/08/31 00:23:46;;;;;;;0.40;0.30;;;12.30;99.90;;;;;;5003778;28;20497;-73
2023/08/31 00:26:12;;;;;;;2.17;0.40;;;12.20;99.90;;;;;;5003360;28;20074;-73
2023/08/31 00:28:38;;;;;;;1.00;0.70;;;12.30;99.90;;;;;;5003360;28;20050;-74
2023/08/31 00:31:04;;;;;;;2.17;1.08;;;12.20;99.90;;;;;;5003743;28;20041;-73
2023/08/31 00:33:30;;;;;;;1.60;0.40;;;12.30;99.90;;;;;;5001191;28;20049;-73
2023/08/31 00:36:01;;;;;;;1.67;0.50;;;12.20;99.90;;;;;;5003522;28;20042;-73
2023/08/31 00:38:27;;;;;;;0.68;0.40;;;12.20;99.90;;;;;;5005962;28;21026;-72
2023/08/31 00:40:54;;;;;;;2.08;0.35;;;12.20;99.90;;;;;;5008284;28;20049;-73
2023/08/31 00:43:20;;;;;;;2.72;0.50;;;12.20;99.90;;;;;;4987037;28;20090;-73
2023/08/31 00:45:48;;;;;;;2.53;0.60;;;12.20;99.90;;;;;;4988028;28;20038;-73
2023/08/31 00:48:18;;;;;;;1.15;0.50;;;12.20;99.90;;;;;;4986789;28;20405;-72
2023/08/31 00:50:45;;;;;;;2.17;0.55;;;12.20;99.90;;;;;;4998830;28;20038;-73
2023/08/31 00:53:11;;;;;;;1.60;0.35;;;12.20;99.90;;;;;;5005896;28;20069;-73
2023/08/31 00:55:37;;;;;;;0.73;0.32;;;12.20;99.90;;;;;;5006079;28;21728;-73
2023/08/31 00:58:05;;;;;;;0.68;0.30;;;12.20;99.90;;;;;;5006301;28;20049;-72
2023/08/31 01:00:56;;;;;;;0.28;0.28;;;12.20;99.90;;;;;;5006667;28;20068;-73
2023/08/31 01:03:40;;;;;;;1.00;0.30;;;12.20;99.90;;;;;;5005962;28;20149;-74
2023/08/31 01:06:36;;;;;;;0.63;0.38;;;12.20;99.90;;;;;;5006576;28;20073;-73
2023/08/31 01:09:23;;;;;;;0.82;0.30;;;12.10;99.90;;;;;;5021482;28;20049;-73
2023/08/31 01:12:04;;;;;;;0.98;0.60;;;12.20;99.90;;;;;;5006714;28;20095;-73
2023/08/31 01:14:45;;;;;;;0.50;0.30;;;12.10;99.90;;;;;;5005928;28;20088;-73
2023/08/31 01:17:14;;;;;;;2.35;0.65;;;12.20;99.90;;;;;;5006680;28;20076;-73
2023/08/31 01:19:46;;;;;;;0.28;0.25;;;12.10;99.90;;;;;;5004822;28;20046;-73
2023/08/31 01:22:40;;;;;;;0.45;0.25;;;12.10;99.90;;;;;;5006247;28;20133;-73
2023/08/31 01:25:09;;;;;;;1.02;0.93;;;12.10;99.90;;;;;;5003941;28;20094;-73
2023/08/31 01:27:36;;;;;;;2.20;0.40;;;12.10;99.90;;;;;;5007336;28;20404;-72
2023/08/31 01:30:03;;;;;;;4.47;0.73;;;12.10;99.90;;;;;;5006294;28;20101;-73
2023/08/31 01:32:29;;;;;;;0.50;0.40;;;12.10;99.90;;;;;;5006590;28;20092;-73
2023/08/31 01:34:57;;;;;;;0.80;0.47;;;12.10;99.90;;;;;;5004378;28;20073;-73
2023/08/31 01:37:38;;;;;;;0.95;0.30;;;12.10;99.90;;;;;;5005732;28;20121;-73
2023/08/31 01:40:11;;;;;;;4.57;0.75;;;12.10;99.90;;;;;;5006840;28;20095;-73
2023/08/31 01:42:38;;;;;;;0.50;0.40;;;12.10;99.90;;;;;;5005439;28;20050;-73
2023/08/31 01:45:05;;;;;;;2.63;0.45;;;12.10;99.90;;;;;;5006668;28;20054;-73
2023/08/31 01:47:31;;;;;;;0.80;0.20;;;12.10;99.90;;;;;;5005792;28;20116;-73
2023/08/31 01:49:56;;;;;;;0.82;0.60;;;12.10;99.90;;;;;;5005192;28;20484;-74
2023/08/31 01:52:22;;;;;;;0.20;0.20;;;12.10;99.90;;;;;;5005854;28;20041;-73
2023/08/31 01:54:48;;;;;;;0.28;0.20;;;12.10;99.90;;;;;;5005814;28;20369;-73
2023/08/31 01:57:14;;;;;;;0.63;0.50;;;12.10;99.90;;;;;;5004806;28;20108;-74
2023/08/31 01:59:39;;;;;;;1.42;0.60;;;12.10;99.90;;;;;;5006488;28;20450;-74
2023/08/31 02:02:05;;;;;;;0.52;0.30;;;12.10;99.90;;;;;;5006558;28;20037;-73
2023/08/31 02:04:31;;;;;;;1.27;0.60;;;12.10;99.90;;;;;;5004096;28;20807;-73
2023/08/31 02:06:57;;;;;;;0.63;0.63;;;12.10;99.90;;;;;;4965211;28;20559;-74
2023/08/31 02:09:22;;;;;;;1.80;0.35;;;12.10;99.90;;;;;;4986507;28;20069;-73
2023/08/31 02:11:48;;;;;;;1.20;0.45;;;12.10;99.90;;;;;;4986621;28;20547;-73
2023/08/31 02:14:14;;;;;;;1.77;0.75;;;12.10;99.90;;;;;;4986249;28;20038;-73
2023/08/31 02:16:39;;;;;;;2.42;1.15;;;12.20;99.90;;;;;;4996407;28;20042;-74
2023/08/31 02:19:05;;;;;;;4.18;0.40;;;12.20;99.90;;;;;;5004776;28;20042;-73
2023/08/31 02:21:31;;;;;;;2.50;0.38;;;12.20;99.90;;;;;;4994276;28;20057;-73
2023/08/31 02:23:56;;;;;;;1.15;0.60;;;12.20;99.90;;;;;;5000499;28;20117;-73
2023/08/31 02:26:22;;;;;;;1.80;0.40;;;12.20;99.90;;;;;;4985884;28;20041;-73
2023/08/31 02:28:48;;;;;;;0.52;0.40;;;12.20;99.90;;;;;;4986949;28;20113;-74
2023/08/31 02:31:14;;;;;;;1.67;0.52;;;12.20;99.90;;;;;;4993261;28;20042;-73
2023/08/31 02:33:40;;;;;;;1.95;0.60;;;12.30;99.90;;;;;;5004665;28;20104;-74
2023/08/31 02:36:05;;;;;;;4.47;0.40;;;12.30;99.90;;;;;;5005334;28;20037;-73
2023/08/31 02:38:32;;;;;;;0.38;0.35;;;12.30;99.90;;;;;;5000408;28;20042;-74
2023/08/31 02:40:57;;;;;;;0.20;0.20;;;12.30;99.90;;;;;;5000706;28;20052;-73
2023/08/31 02:43:25;;;;;;;0.75;0.40;;;12.30;99.90;;;;;;4986241;28;20042;-73
2023/08/31 02:45:58;;;;;;;2.30;0.80;;;12.30;99.90;;;;;;4992925;28;20038;-73
2023/08/31 02:48:24;;;;;;;0.20;0.20;;;12.30;99.90;;;;;;5004414;28;20042;-73
2023/08/31 02:50:49;;;;;;;2.53;0.50;;;12.30;99.90;;;;;;5004266;28;20042;-73
2023/08/31 02:53:15;;;;;;;3.08;0.55;;;12.40;99.90;;;;;;4985629;28;20038;-73
2023/08/31 02:55:42;;;;;;;2.38;1.25;;;12.40;99.90;;;;;;4985459;28;20138;-73
2023/08/31 02:58:08;;;;;;;3.78;1.60;;;12.40;99.90;;;;;;4987564;28;20804;-74
2023/08/31 03:00:33;;;;;;;0.45;0.40;;;12.40;99.90;;;;;;4988772;28;20124;-73
2023/08/31 03:02:59;;;;;;;0.32;0.32;;;12.40;99.90;;;;;;4970044;28;20493;-73
2023/08/31 03:05:25;;;;;;;3.15;1.05;;;12.30;99.90;;;;;;4991414;28;20054;-73
2023/08/31 03:07:50;;;;;;;3.47;0.45;;;12.40;99.90;;;;;;5003389;28;20042;-73
2023/08/31 03:10:16;;;;;;;2.10;0.70;;;12.40;99.90;;;;;;5004489;28;20133;-73
2023/08/31 03:12:42;;;;;;;0.63;0.50;;;12.30;99.90;;;;;;5004772;28;20049;-74
2023/08/31 03:15:08;;;;;;;1.63;0.55;;;12.40;99.90;;;;;;5003029;28;20172;-74
2023/08/31 03:17:34;;;;;;;1.73;0.70;;;12.40;99.90;;;;;;5005166;28;20042;-73
2023/08/31 03:20:00;;;;;;;0.55;0.55;;;12.30;99.90;;;;;;5003999;28;20049;-73
2023/08/31 03:22:25;;;;;;;1.73;0.40;;;12.30;99.90;;;;;;5002326;28;20041;-73
2023/08/31 03:24:51;;;;;;;1.15;1.02;;;12.30;99.90;;;;;;5004353;28;20195;-73
2023/08/31 03:27:17;;;;;;;1.42;0.80;;;12.30;99.90;;;;;;5004360;28;20479;-73
2023/08/31 03:29:42;;;;;;;0.50;0.50;;;12.30;99.90;;;;;;5002879;28;20057;-74
2023/08/31 03:32:08;;;;;;;2.75;1.23;;;12.30;99.90;;;;;;5002503;28;20489;-74
2023/08/31 03:34:34;;;;;;;4.40;0.73;;;12.30;99.90;;;;;;5004373;28;20172;-73
2023/08/31 03:36:59;;;;;;;1.17;0.98;;;12.30;99.90;;;;;;5004261;28;20069;-73
2023/08/31 03:39:26;;;;;;;0.60;0.52;;;12.30;99.90;;;;;;5003906;28;20069;-74
2023/08/31 03:41:51;;;;;;;1.10;0.50;;;12.20;99.90;;;;;;5003960;28;20038;-74
2023/08/31 03:44:17;;;;;;;0.80;0.55;;;12.30;99.90;;;;;;5003711;28;20080;-73
2023/08/31 03:46:43;;;;;;;0.50;0.40;;;12.20;99.90;;;;;;5004348;28;20439;-74
2023/08/31 03:49:09;;;;;;;2.25;0.55;;;12.20;99.90;;;;;;5003430;28;20132;-74
2023/08/31 03:51:34;;;;;;;2.70;0.70;;;12.20;99.90;;;;;;5003991;28;20117;-74
2023/08/31 03:54:00;;;;;;;0.47;0.43;;;12.10;99.90;;;;;;5003817;28;20068;-73
2023/08/31 03:56:26;;;;;;;1.98;0.60;;;12.10;99.90;;;;;;5003707;28;20037;-73
2023/08/31 03:58:52;;;;;;;0.50;0.50;;;12.10;99.90;;;;;;5002496;28;20052;-73
2023/08/31 04:01:18;;;;;;;1.13;0.82;;;12.10;99.90;;;;;;5002911;28;20095;-73
2023/08/31 04:03:43;;;;;;;0.80;0.73;;;12.10;99.90;;;;;;5003149;28;20088;-74
2023/08/31 04:06:09;;;;;;;2.88;0.70;;;12.10;99.90;;;;;;5001601;28;20072;-74
2023/08/31 04:08:36;;;;;;;0.70;0.40;;;12.10;99.90;;;;;;5004443;28;20590;-73
2023/08/31 04:11:03;;;;;;;1.75;0.40;;;12.00;99.90;;;;;;5002183;28;20046;-73
2023/08/31 04:13:28;;;;;;;2.00;0.95;;;12.00;99.90;;;;;;5001759;28;20115;-73
2023/08/31 04:15:54;;;;;;;1.73;0.88;;;12.00;99.90;;;;;;5003874;28;20038;-73
2023/08/31 04:18:21;;;;;;;1.08;0.82;;;12.00;99.90;;;;;;5003126;28;20042;-73
2023/08/31 04:20:50;;;;;;;4.03;0.90;;;12.00;99.90;;;;;;5002230;28;20057;-73
2023/08/31 04:23:17;;;;;;;0.63;0.63;;;12.00;99.90;;;;;;5003348;28;20048;-73
2023/08/31 04:25:43;;;;;;;0.85;0.43;;;12.00;99.90;;;;;;5003531;28;20046;-73
2023/08/31 04:28:08;;;;;;;1.98;0.77;;;11.90;99.90;;;;;;5002301;28;20463;-74
2023/08/31 04:30:34;;;;;;;0.63;0.52;;;11.90;99.90;;;;;;5004243;28;20396;-73
2023/08/31 04:32:59;;;;;;;0.75;0.60;;;11.90;99.90;;;;;;5002850;28;20128;-73
2023/08/31 04:35:25;;;;;;;0.88;0.70;;;11.90;99.90;;;;;;5003552;28;20685;-73
2023/08/31 04:37:51;;;;;;;1.35;0.77;;;11.90;99.90;;;;;;5003784;28;20618;-74
2023/08/31 04:40:16;;;;;;;2.58;0.50;;;11.90;99.90;;;;;;5002160;28;20046;-73
2023/08/31 04:42:42;;;;;;;1.60;0.90;;;11.90;99.90;;;;;;5002539;28;20054;-74
2023/08/31 04:45:10;;;;;;;2.45;0.98;;;11.90;99.90;;;;;;5001790;28;20120;-74
2023/08/31 04:47:35;;;;;;;0.70;0.70;;;11.80;99.90;;;;;;5002957;28;20081;-73
2023/08/31 04:50:01;;;;;;;1.95;1.00;;;11.80;99.90;;;;;;4984778;28;20480;-73
2023/08/31 04:52:27;;;;;;;3.38;0.90;;;11.80;99.90;;;;;;5003188;28;20456;-74
2023/08/31 04:54:52;;;;;;;1.15;0.60;;;11.80;99.90;;;;;;5003162;28;20034;-73
2023/08/31 04:57:19;;;;;;;6.65;0.80;;;11.90;99.90;;;;;;5003146;28;20050;-73
2023/08/31 04:59:45;;;;;;;1.90;0.60;;;11.80;99.90;;;;;;5003221;28;20481;-74
2023/08/31 05:02:10;;;;;;;5.05;0.82;;;11.80;99.90;;;;;;5001532;28;20049;-74
2023/08/31 05:04:36;;;;;;;1.10;0.98;;;11.80;99.90;;;;;;5002610;28;20073;-73
2023/08/31 05:07:03;;;;;;;1.75;0.80;;;11.80;99.90;;;;;;5002840;28;20038;-73
2023/08/31 05:09:32;;;;;;;1.50;0.75;;;11.70;99.90;;;;;;5000914;28;20038;-73
2023/08/31 05:11:58;;;;;;;0.40;0.40;;;11.70;99.90;;;;;;5001039;28;20034;-73
2023/08/31 05:14:25;;;;;;;0.80;0.60;;;11.70;99.90;;;;;;5001810;28;20057;-75
2023/08/31 05:16:50;;;;;;;1.40;1.20;;;11.70;99.90;;;;;;5000580;28;20053;-73
2023/08/31 05:19:16;;;;;;;1.17;0.70;;;11.70;99.90;;;;;;4999476;28;20120;-73
2023/08/31 05:21:41;;;;;;;1.33;0.82;;;11.70;99.90;;;;;;4999630;28;20061;-74
2023/08/31 05:24:07;;;;;;;0.70;0.70;;;11.70;99.90;;;;;;5003321;28;20123;-73
2023/08/31 05:26:33;;;;;;;4.50;0.60;;;11.80;99.90;;;;;;5006932;28;20042;-73
2023/08/31 05:28:58;;;;;;;1.70;1.08;;;11.80;99.90;;;;;;4998699;28;20429;-73
2023/08/31 05:31:24;;;;;;;2.22;0.82;;;11.80;99.90;;;;;;4996389;28;20077;-73
2023/08/31 05:33:50;;;;;;;2.53;0.82;;;11.80;99.90;;;;;;5002847;28;20046;-72
2023/08/31 05:36:15;;;;;;;1.48;0.95;;;11.80;99.90;;;;;;5003702;28;20050;-72
2023/08/31 05:38:41;;;;;;;1.48;1.00;;;11.80;99.90;;;;;;5005578;28;20045;-72
2023/08/31 05:41:09;;;;;;;0.68;0.60;;;11.80;99.90;;;;;;5004357;28;20559;-72
2023/08/31 05:43:36;;;;;;;1.85;0.50;;;11.80;99.90;;;;;;5005077;28;20117;-72
2023/08/31 05:46:02;;;;;;;2.45;0.95;;;11.80;99.90;;;;;;5006686;28;20131;-72
2023/08/31 05:48:28;;;;;;;1.08;0.60;;;11.90;99.90;;;;;;5005613;28;20045;-72
2023/08/31 05:50:55;;;;;;;1.23;0.60;;;11.90;99.90;;;;;;5037817;28;20050;-72
2023/08/31 05:53:21;;;;;;;2.33;0.70;;;11.90;99.90;;;;;;4990840;28;20041;-74
2023/08/31 05:55:47;;;;;;;1.58;0.70;;;11.90;99.90;;;;;;5002137;28;20057;-75
2023/08/31 05:58:12;;;;;;;1.50;1.10;;;12.00;99.90;;;;;;5004209;28;20045;-75
2023/08/31 06:00:38;;;;;;;2.33;0.77;;;12.00;99.90;;;;;;4995225;28;20038;-76
2023/08/31 06:03:05;;;;;;;1.27;0.50;;;12.10;99.90;;;;;;5002484;28;20042;-77
2023/08/31 06:05:31;;;;;;;1.75;1.25;;;12.00;99.90;;;;;;4990634;28;20054;-77
2023/08/31 06:07:58;;;;;;;0.70;0.60;;;12.10;99.90;;;;;;5003375;28;20090;-73
2023/08/31 06:10:24;;;;;;;2.70;0.70;;;12.20;99.90;;;;;;5003043;28;20046;-73
2023/08/31 06:12:50;;;;;;;4.03;1.35;;;12.20;99.90;;;;;;5004121;28;20045;-75
2023/08/31 06:15:17;;;;;;;1.05;0.75;;;12.20;99.90;;;;;;5000735;28;20049;-73
2023/08/31 06:17:43;;;;;;;3.80;0.95;;;12.30;99.90;;;;;;4998492;28;20136;-73
2023/08/31 06:20:09;;;;;;;2.88;0.95;;;12.30;99.90;;;;;;5003487;28;20061;-74
2023/08/31 06:22:35;;;;;;;3.15;0.70;;;12.40;99.90;;;;;;4985676;28;20429;-73
2023/08/31 06:25:02;;;;;;;2.72;0.90;;;12.30;99.90;;;;;;5002598;28;20057;-73
2023/08/31 06:27:28;;;;;;;1.83;0.65;;;12.40;99.90;;;;;;5003458;28;20560;-73
2023/08/31 06:29:54;;;;;;;2.15;0.90;;;12.50;99.90;;;;;;5004120;28;20041;-72
2023/08/31 06:32:19;;;;;;;0.65;0.52;;;12.50;99.90;;;;;;5004633;28;20048;-70
2023/08/31 06:34:45;;;;;;;2.42;0.68;;;12.50;99.90;;;;;;4989064;28;20125;-70
2023/08/31 06:37:11;;;;;;;1.80;0.75;;;12.60;99.90;;;;;;5003007;28;20414;-70
2023/08/31 06:39:37;;;;;;;3.97;1.13;;;12.60;99.90;;;;;;5005836;28;20477;-70
2023/08/31 06:42:03;;;;;;;2.00;1.15;;;12.70;99.90;;;;;;5005419;28;20045;-70
2023/08/31 06:44:29;;;;;;;5.10;1.50;;;12.70;99.90;;;;;;5005338;28;20054;-69
2023/08/31 06:46:55;;;;;;;1.35;1.02;;;12.80;99.90;;;;;;4985623;28;20046;-70
2023/08/31 06:49:23;;;;;;;1.60;1.33;;;12.80;99.90;;;;;;4985386;28;20457;-70
2023/08/31 06:51:48;;;;;;;9.18;2.22;;;12.80;99.90;;;;;;5036676;28;20050;-70
2023/08/31 06:54:14;;;;;;;1.48;0.77;;;12.90;99.90;;;;;;4987421;28;20585;-70
2023/08/31 06:56:40;;;;;;;4.45;1.25;;;13.00;99.90;;;;;;5004420;28;20042;-70
2023/08/31 06:59:05;;;;;;;1.42;0.60;;;13.00;99.90;;;;;;5005672;28;20049;-70
2023/08/31 07:01:32;;;;;;;2.28;1.23;;;13.10;99.90;;;;;;4984953;28;20042;-70
2023/08/31 07:03:58;;;;;;;0.90;0.45;;;13.20;99.90;;;;;;4998691;28;20046;-70
2023/08/31 07:06:24;;;;;;;1.23;0.65;;;13.30;99.90;;;;;;4997785;28;20100;-70
2023/08/31 07:08:50;;;;;;;1.52;0.73;;;13.30;99.90;;;;;;4983837;28;20112;-70
2023/08/31 07:11:16;;;;;;;1.30;0.70;;;13.30;99.90;;;;;;4984010;28;20485;-70
2023/08/31 07:13:42;;;;;;;1.27;1.17;;;13.40;99.90;;;;;;4984292;28;20053;-70
2023/08/31 07:16:07;;;;;;;0.82;0.50;;;13.40;99.90;;;;;;4986827;28;20654;-72
2023/08/31 07:18:33;;;;;;;1.48;0.40;;;13.50;99.90;;;;;;4996833;28;20038;-70
2023/08/31 07:20:59;;;;;;;0.40;0.40;;;13.60;99.90;;;;;;4983648;28;20129;-70
2023/08/31 07:23:24;;;;;;;1.05;0.82;;;13.70;99.90;;;;;;4996668;28;20714;-70
2023/08/31 07:25:50;;;;;;;4.13;0.82;;;13.70;99.90;;;;;;4987608;28;20444;-70
2023/08/31 07:28:16;;;;;;;0.50;0.47;;;13.80;99.90;;;;;;5035676;28;20730;-70
2023/08/31 07:30:41;;;;;;;0.40;0.40;;;13.80;99.90;;;;;;5028500;28;20046;-70
2023/08/31 07:33:07;;;;;;;1.92;0.60;;;13.90;99.90;;;;;;4993537;28;20049;-72
2023/08/31 07:35:33;;;;;;;0.57;0.50;;;14.00;99.90;;;;;;4995465;28;20802;-70
2023/08/31 07:37:58;;;;;;;0.90;0.60;;;14.00;99.90;;;;;;4997154;28;20049;-70
2023/08/31 07:40:25;;;;;;;1.85;0.60;;;14.10;99.90;;;;;;5000069;28;20051;-70
2023/08/31 07:42:51;;;;;;;1.05;1.05;;;14.20;99.90;;;;;;5004961;28;20037;-70
2023/08/31 07:45:17;;;;;;;1.35;0.93;;;14.30;99.90;;;;;;5002906;28;20056;-70
2023/08/31 07:47:43;;;;;;;1.58;0.60;;;14.40;99.90;;;;;;5002718;28;20133;-70
2023/08/31 07:50:09;;;;;;;0.77;0.60;;;14.50;99.90;;;;;;5001735;28;20290;-72
2023/08/31 07:52:34;;;;;;;2.25;1.33;;;14.60;99.90;;;;;;5003453;28;20133;-73
2023/08/31 07:55:00;;;;;;;11.15;1.95;;;14.60;99.90;;;;;;5004401;28;20116;-72
2023/08/31 07:57:26;;;;;;;0.95;0.50;;;14.40;99.90;;;;;;4992221;28;20982;-71
2023/08/31 07:59:52;;;;;;;1.70;1.20;;;14.10;99.90;;;;;;4994488;28;20042;-73
2023/08/31 08:02:17;;;;;;;0.25;0.25;;;13.90;99.90;;;;;;4975444;28;20378;-71
2023/08/31 08:04:45;;;;;;;0.88;0.55;;;13.70;99.90;;;;;;4988343;28;20038;-72
2023/08/31 08:07:11;;;;;;;1.05;0.50;;;13.50;99.90;;;;;;5024318;28;20046;-71
2023/08/31 08:09:37;;;;;;;1.67;0.40;;;13.40;99.90;;;;;;4999980;28;20030;-72
2023/08/31 08:12:03;;;;;;;0.52;0.52;;;13.30;99.90;;;;;;4992168;28;20731;-72
2023/08/31 08:14:29;;;;;;;1.35;0.45;;;13.30;99.90;;;;;;5010841;28;20088;-72
2023/08/31 08:16:54;;;;;;;0.55;0.30;;;13.30;99.90;;;;;;5005451;28;20045;-71
2023/08/31 08:19:23;;;;;;;1.35;0.30;;;13.30;99.90;;;;;;4984867;28;20504;-72
2023/08/31 08:21:52;;;;;;;4.25;0.57;;;13.40;99.90;;;;;;4998964;28;20034;-71
2023/08/31 08:24:19;;;;;;;2.72;0.70;;;13.40;99.90;;;;;;4989695;28;20084;-72
2023/08/31 08:26:44;;;;;;;2.90;0.80;;;13.50;99.90;;;;;;5001938;28;20277;-72
2023/08/31 08:29:10;;;;;;;2.88;1.30;;;13.60;99.90;;;;;;5003200;28;20431;-72
2023/08/31 08:31:36;;;;;;;0.82;0.60;;;13.70;99.90;;;;;;5002178;28;20472;-72
2023/08/31 08:34:03;;;;;;;0.63;0.60;;;13.80;99.90;;;;;;5001239;28;20038;-72
2023/08/31 08:36:29;;;;;;;0.95;0.57;;;13.90;99.90;;;;;;5001953;28;20432;-72
2023/08/31 08:38:54;;;;;;;4.90;0.80;;;14.00;99.90;;;;;;5018338;28;20084;-72
2023/08/31 08:41:23;;;;;;;5.45;0.80;;;14.10;99.90;;;;;;5001631;28;20404;-72
2023/08/31 08:43:51;;;;;;;1.63;0.60;;;14.20;99.90;;;;;;4982839;28;20255;-72
2023/08/31 08:46:17;;;;;;;5.80;0.63;;;14.30;99.90;;;;;;4997144;28;20042;-71
2023/08/31 08:48:45;;;;;;;0.73;0.50;;;14.20;99.90;;;;;;5000520;28;20065;-72
2023/08/31 08:51:11;;;;;;;1.13;0.52;;;14.10;99.90;;;;;;4991827;28;20042;-72
2023/08/31 08:53:38;;;;;;;1.83;0.82;;;14.10;99.90;;;;;;5003757;28;20042;-72
2023/08/31 08:56:04;;;;;;;0.70;0.70;;;14.10;99.90;;;;;;5003377;28;20081;-72
2023/08/31 08:58:30;;;;;;;0.63;0.47;;;14.10;99.90;;;;;;5002539;28;20045;-72
2023/08/31 09:00:56;;;;;;;1.60;0.40;;;14.10;99.90;;;;;;5005692;28;20041;-72
2023/08/31 09:03:23;;;;;;;0.57;0.50;;;14.30;99.90;;;;;;5003960;28;20042;-72
2023/08/31 09:05:49;;;;;;;4.25;1.08;;;14.30;99.90;;;;;;5000460;28;20582;-73
2023/08/31 09:08:15;;;;;;;6.38;0.60;;;14.40;99.90;;;;;;4996555;28;20050;-73
2023/08/31 09:10:43;;;;;;;0.77;0.40;;;14.40;99.90;;;;;;5001173;28;20033;-73
2023/08/31 09:13:10;;;;;;;2.67;0.50;;;14.50;99.90;;;;;;5004829;28;20070;-73
2023/08/31 09:15:44;;;;;;;0.77;0.50;;;14.60;99.90;;;;;;5003642;28;20034;-73
2023/08/31 09:18:16;;;;;;;0.95;0.47;;;14.60;99.90;;;;;;4997491;28;20297;-73
2023/08/31 09:20:47;;;;;;;1.48;0.45;;;14.70;99.90;;;;;;4999654;28;20085;-73
2023/08/31 09:23:13;;;;;;;1.27;0.52;;;14.80;99.90;;;;;;5004995;28;20057;-73
2023/08/31 09:25:48;;;;;;;0.90;0.60;;;14.90;99.90;;;;;;5005116;28;20300;-73
2023/08/31 09:28:15;;;;;;;0.35;0.35;;;14.90;99.90;;;;;;5010593;28;20601;-74
2023/08/31 09:30:42;;;;;;;4.30;0.40;;;15.00;99.90;;;;;;4993559;28;20084;-73
2023/08/31 09:33:16;;;;;;;2.08;1.20;;;15.10;99.90;;;;;;5001797;28;20045;-74
2023/08/31 09:35:50;;;;;;;0.77;0.30;;;15.20;99.90;;;;;;4996505;28;20049;-72
2023/08/31 09:38:16;;;;;;;1.05;0.30;;;15.30;99.90;;;;;;5005356;28;20056;-72
2023/08/31 09:40:41;;;;;;;0.55;0.35;;;15.30;99.90;;;;;;5023768;28;20437;-73
2023/08/31 09:43:07;;;;;;;0.50;0.40;;;15.20;99.90;;;;;;4988822;28;20038;-73
2023/08/31 09:45:35;;;;;;;0.30;0.30;;;15.10;99.90;;;;;;4999376;28;20385;-73
2023/08/31 09:48:02;;;;;;;0.40;0.40;;;15.00;99.90;;;;;;5005097;28;20042;-73
2023/08/31 09:50:32;;;;;;;3.92;0.70;;;14.90;99.90;;;;;;5005167;28;20050;-73
2023/08/31 09:53:03;;;;;;;0.82;0.55;;;14.80;99.90;;;;;;5006832;28;20573;-72
2023/08/31 09:55:30;;;;;;;3.53;0.93;;;14.80;99.90;;;;;;5005301;28;20042;-73
2023/08/31 09:57:58;;;;;;;0.30;0.30;;;14.80;99.90;;;;;;5000818;28;20055;-73
2023/08/31 10:00:29;;;;;;;1.88;1.55;;;14.90;99.90;;;;;;5002531;28;20045;-73
2023/08/31 10:02:57;;;;;;;0.63;0.47;;;15.00;99.90;;;;;;5001273;28;20049;-73
2023/08/31 10:05:24;;;;;;;0.65;0.50;;;15.10;99.90;;;;;;5000039;28;20094;-72
2023/08/31 10:07:53;;;;;;;1.27;0.50;;;15.20;99.90;;;;;;4993826;28;20053;-72
2023/08/31 10:10:22;;;;;;;0.77;0.70;;;15.40;99.90;;;;;;4997801;28;20118;-72
2023/08/31 10:12:49;;;;;;;0.85;0.50;;;15.50;99.90;;;;;;4999080;28;20081;-72
2023/08/31 10:15:16;;;;;;;2.72;0.50;;;15.60;99.90;;;;;;5003596;28;20378;-72
2023/08/31 10:17:42;;;;;;;0.40;0.35;;;15.70;99.90;;;;;;5001033;28;20511;-73
2023/08/31 10:20:09;;;;;;;2.55;0.57;;;15.70;99.90;;;;;;4998153;28;20053;-74
2023/08/31 10:22:36;;;;;;;0.57;0.50;;;15.70;99.90;;;;;;5005147;28;20498;-72
2023/08/31 10:25:06;;;;;;;0.63;0.30;;;15.70;99.90;;;;;;5013174;28;20046;-71
2023/08/31 10:27:42;;;;;;;0.28;0.28;;;15.60;99.90;;;;;;5003402;28;20535;-71
2023/08/31 10:30:16;;;;;;;0.40;0.30;;;15.50;99.90;;;;;;4980349;28;20088;-72
2023/08/31 10:32:41;;;;;;;0.70;0.47;;;15.30;99.90;;;;;;4996485;28;20118;-72
2023/08/31 10:35:10;;;;;;;2.13;0.40;;;15.20;99.90;;;;;;4992392;28;20038;-72
2023/08/31 10:37:35;;;;;;;2.15;0.28;;;15.30;99.90;;;;;;4985835;28;20046;-72
2023/08/31 10:40:09;;;;;;;2.05;0.45;;;15.30;99.90;;;;;;5001515;28;20041;-72
2023/08/31 10:42:45;;;;;;;3.92;0.50;;;15.30;99.90;;;;;;5019737;28;20049;-72
2023/08/31 10:45:11;;;;;;;1.48;0.40;;;15.40;99.90;;;;;;4992378;28;20053;-72
2023/08/31 10:47:41;;;;;;;0.32;0.32;;;15.60;99.90;;;;;;4997964;28;20095;-72
2023/08/31 10:50:24;;;;;;;3.40;0.52;;;15.70;99.90;;;;;;4999376;28;20056;-72
2023/08/31 10:52:50;;;;;;;1.27;0.30;;;15.80;99.90;;;;;;4991163;28;20046;-73
2023/08/31 10:55:16;;;;;;;1.25;0.55;;;15.80;99.90;;;;;;4997260;28;20049;-73
2023/08/31 10:57:42;;;;;;;1.17;0.40;;;15.80;99.90;;;;;;4972563;28;20046;-72
2023/08/31 11:00:08;;;;;;;1.17;0.40;;;15.90;99.90;;;;;;4998467;28;20068;-74
2023/08/31 11:02:40;;;;;;;0.90;0.80;;;15.90;99.90;;;;;;4989761;28;20425;-72
2023/08/31 11:05:14;;;;;;;0.63;0.60;;;16.00;99.90;;;;;;4984951;28;20068;-72
2023/08/31 11:07:44;;;;;;;0.77;0.40;;;16.10;99.90;;;;;;5002583;28;20054;-72
2023/08/31 11:10:20;;;;;;;1.35;0.75;;;16.10;99.90;;;;;;5004521;28;20038;-73
2023/08/31 11:12:52;;;;;;;0.93;0.70;;;16.20;99.90;;;;;;5017853;28;20168;-72
2023/08/31 11:15:19;;;;;;;1.88;0.60;;;16.10;99.90;;;;;;4996565;28;20033;-73
2023/08/31 11:17:48;;;;;;;4.97;0.90;;;16.10;99.90;;;;;;4997941;28;20429;-73
2023/08/31 11:20:16;;;;;;;1.65;0.60;;;16.00;99.90;;;;;;4996456;28;20045;-73
2023/08/31 11:22:44;;;;;;;0.63;0.40;;;16.00;99.90;;;;;;4998677;28;20557;-72
2023/08/31 11:25:12;;;;;;;0.32;0.32;;;16.00;99.90;;;;;;4995036;28;20142;-73
2023/08/31 11:27:38;;;;;;;1.23;0.50;;;16.00;99.90;;;;;;5001615;28;20034;-74
2023/08/31 11:30:15;;;;;;;0.75;0.60;;;16.10;99.90;;;;;;5003819;28;20515;-73
2023/08/31 11:32:48;;;;;;;0.57;0.50;;;16.20;99.90;;;;;;4999762;28;20330;-73
2023/08/31 11:35:16;;;;;;;6.82;0.60;;;16.20;99.90;;;;;;4997282;28;20092;-77
2023/08/31 11:37:44;;;;;;;0.90;0.50;;;16.20;99.90;;;;;;4992186;28;20034;-73
2023/08/31 11:40:10;;;;;;;1.17;0.70;;;16.10;99.90;;;;;;4997956;28;20107;-74
2023/08/31 11:42:35;;;;;;;0.90;0.40;;;16.10;99.90;;;;;;4977892;28;20038;-73
2023/08/31 11:45:04;;;;;;;2.90;0.65;;;16.00;99.90;;;;;;5001387;28;20044;-73
2023/08/31 11:47:33;;;;;;;2.40;0.43;;;16.10;99.90;;;;;;4998891;28;20042;-73
2023/08/31 11:50:03;;;;;;;0.80;0.52;;;16.20;99.90;;;;;;5001518;28;20548;-73
2023/08/31 11:52:30;;;;;;;2.60;0.57;;;16.30;99.90;;;;;;4999174;28;20516;-74
2023/08/31 11:54:56;;;;;;;3.35;0.93;;;16.40;99.90;;;;;;4992897;28;20049;-73
2023/08/31 11:57:26;;;;;;;2.42;0.50;;;16.40;99.90;;;;;;4998756;28;20062;-74
2023/08/31 11:59:52;;;;;;;0.88;0.50;;;16.40;99.90;;;;;;5003834;28;20108;-73
2023/08/31 12:02:19;;;;;;;1.83;0.57;;;16.30;99.90;;;;;;4990490;28;20042;-74
2023/08/31 12:04:46;;;;;;;0.60;0.60;;;16.20;99.90;;;;;;5001840;28;20553;-73
2023/08/31 12:07:16;;;;;;;0.80;0.80;;;16.20;99.90;;;;;;5003788;28;20054;-73
2023/08/31 12:09:44;;;;;;;1.02;0.70;;;16.10;99.90;;;;;;4988423;28;20583;-73
2023/08/31 12:12:10;;;;;;;2.88;0.73;;;16.00;99.90;;;;;;4983626;28;20102;-74
2023/08/31 12:14:40;;;;;;;4.15;0.80;;;16.00;99.90;;;;;;5001388;28;20509;-74
2023/08/31 12:17:08;;;;;;;0.65;0.40;;;16.00;99.90;;;;;;5002566;28;20382;-75
2023/08/31 12:19:36;;;;;;;4.95;0.38;;;16.00;99.90;;;;;;5003373;28;20049;-75
2023/08/31 12:22:02;;;;;;;0.30;0.30;;;16.00;99.90;;;;;;5036033;28;20571;-74
2023/08/31 12:24:28;;;;;;;2.40;0.73;;;16.00;99.90;;;;;;5004546;28;20153;-74
2023/08/31 12:26:54;;;;;;;2.17;0.75;;;16.00;99.90;;;;;;5001010;28;20113;-74
2023/08/31 12:29:20;;;;;;;1.90;0.45;;;15.90;99.90;;;;;;4993942;28;20061;-74
2023/08/31 12:31:45;;;;;;;3.30;0.75;;;16.00;99.90;;;;;;4977509;28;20431;-74
2023/08/31 12:34:11;;;;;;;1.55;0.50;;;15.90;99.90;;;;;;4998661;28;20038;-74
2023/08/31 12:36:38;;;;;;;2.80;0.70;;;15.90;99.90;;;;;;4995188;28;20069;-74
2023/08/31 12:39:06;;;;;;;1.15;0.60;;;15.90;99.90;;;;;;5038532;28;20041;-75
2023/08/31 12:41:33;;;;;;;1.02;0.57;;;15.90;99.90;;;;;;5036413;28;20129;-73
2023/08/31 12:43:58;;;;;;;1.23;0.73;;;15.90;99.90;;;;;;4994308;28;20046;-74
2023/08/31 12:46:24;;;;;;;4.20;0.70;;;15.90;99.90;;;;;;5002767;28;20048;-74
2023/08/31 12:48:52;;;;;;;4.75;0.85;;;16.00;99.90;;;;;;5013902;28;20096;-73